createdAt,value
2023-02-11T00:02:29.808Z,63.05
2023-02-11T00:07:36.625Z,82.93
2023-02-11T00:12:41.000Z,64.47
2023-02-11T00:17:45.263Z,66.95
2023-02-11T00:22:50.942Z,54.10
2023-02-11T00:27:55.179Z,56.80
2023-02-11T00:32:59.387Z,48.78
2023-02-11T00:38:05.418Z,53.03
2023-02-11T00:43:09.931Z,52.75
2023-02-11T00:48:14.222Z,52.05
2023-02-11T00:53:19.987Z,52.33
2023-02-11T01:03:28.690Z,54.58
2023-02-11T01:08:34.617Z,55.05
2023-02-11T01:13:39.047Z,43.58
2023-02-11T01:18:44.549Z,55.95
2023-02-11T01:23:50.216Z,49.42
2023-02-11T01:28:54.507Z,44.03
2023-02-11T01:33:58.819Z,48.90
2023-02-11T01:39:04.854Z,44.38
2023-02-11T01:44:28.617Z,42.38
2023-02-11T01:49:36.583Z,49.60
2023-02-11T01:55:02.670Z,44.08
2023-02-11T02:00:12.612Z,42.63
2023-02-11T02:10:32.939Z,50.25
2023-02-11T02:15:39.194Z,46.67
2023-02-11T02:21:44.742Z,50.40
2023-02-11T02:27:10.139Z,51.97
2023-02-11T02:32:44.732Z,51.67
2023-02-11T02:37:57.816Z,52.33
2023-02-11T02:43:04.324Z,55.13
2023-02-11T02:48:26.294Z,47.83
2023-02-11T02:53:44.071Z,54.08
2023-02-11T02:59:26.117Z,53.13
2023-02-11T03:04:39.570Z,50.40
2023-02-11T03:09:49.832Z,51.95
2023-02-11T03:14:54.435Z,53.08
2023-02-11T03:20:01.293Z,54.25
2023-02-11T03:25:06.823Z,48.97
2023-02-11T03:30:17.756Z,51.22
2023-02-11T03:35:26.545Z,56.58
2023-02-11T03:40:33.804Z,56.08
2023-02-11T03:45:39.998Z,51.95
2023-02-11T03:50:47.773Z,53.35
2023-02-11T03:55:53.598Z,54.05
2023-02-11T04:00:57.927Z,50.03
2023-02-11T04:06:03.814Z,51.10
2023-02-11T04:11:08.325Z,52.53
2023-02-11T04:16:12.773Z,53.67
2023-02-11T04:21:18.670Z,52.42
2023-02-11T04:31:26.897Z,51.45
2023-02-11T04:36:32.576Z,53.83
2023-02-11T04:41:36.954Z,56.50
2023-02-11T04:46:41.627Z,52.63
2023-02-11T04:51:49.410Z,62.15
2023-02-11T04:56:53.880Z,54.60
2023-02-11T05:01:58.195Z,61.33
2023-02-11T05:07:03.962Z,58.58
2023-02-11T05:17:12.453Z,48.03
2023-02-11T05:22:18.324Z,51.72
2023-02-11T05:27:22.515Z,63.75
2023-02-11T05:32:26.873Z,50.75
2023-02-11T05:37:32.689Z,64.65
2023-02-11T05:42:37.063Z,57.35
2023-02-11T05:47:41.486Z,53.33
2023-02-11T05:52:47.172Z,52.22
2023-02-11T05:57:51.706Z,53.78
2023-02-11T06:02:56.454Z,50.88
2023-02-11T06:08:02.399Z,60.92
2023-02-11T06:13:06.642Z,59.22
2023-02-11T06:18:12.011Z,56.83
2023-02-11T06:23:17.774Z,53.42
2023-02-11T06:28:22.011Z,54.85
2023-02-11T06:33:28.394Z,59.42
2023-02-11T06:38:34.917Z,56.95
2023-02-11T06:43:39.174Z,55.33
2023-02-11T06:48:44.935Z,55.75
2023-02-11T06:58:56.501Z,56.00
2023-02-11T07:04:00.781Z,54.95
2023-02-11T07:09:06.756Z,54.65
2023-02-11T07:14:13.412Z,50.25
2023-02-11T07:19:17.620Z,64.95
2023-02-11T07:24:23.409Z,55.95
2023-02-11T07:29:28.180Z,57.20
2023-02-11T07:34:33.183Z,53.85
2023-02-11T07:39:38.944Z,61.83
2023-02-11T07:44:43.214Z,58.30
2023-02-11T07:49:47.758Z,51.97
2023-02-11T07:54:53.652Z,56.78
2023-02-11T08:05:02.010Z,58.40
2023-02-11T08:10:08.564Z,61.15
2023-02-11T08:15:13.190Z,55.22
2023-02-11T08:20:17.666Z,59.97
2023-02-11T08:25:23.395Z,56.85
2023-02-11T08:35:34.175Z,61.58
2023-02-11T08:40:39.803Z,61.88
2023-02-11T08:50:48.308Z,57.33
2023-02-11T08:55:56.690Z,62.83
2023-02-11T09:01:01.308Z,59.47
2023-02-11T09:06:08.143Z,63.20
2023-02-11T09:11:14.696Z,53.30
2023-02-11T09:16:21.049Z,57.33
2023-02-11T09:21:25.337Z,54.40
2023-02-11T09:26:33.313Z,59.45
2023-02-11T09:31:37.890Z,59.58
2023-02-11T09:36:42.952Z,50.13
2023-02-11T09:42:27.924Z,54.13
2023-02-11T09:47:34.544Z,57.13
2023-02-11T09:52:45.526Z,54.80
2023-02-11T09:57:51.568Z,60.85
2023-02-11T10:03:05.260Z,65.95
2023-02-11T10:08:17.428Z,65.35
2023-02-11T10:13:42.613Z,61.10
2023-02-11T10:19:11.432Z,62.53
2023-02-11T10:24:17.974Z,56.50
2023-02-11T10:29:37.212Z,57.95
2023-02-11T10:34:43.423Z,58.38
2023-02-11T10:39:47.914Z,54.53
2023-02-11T10:45:00.481Z,58.60
2023-02-11T10:50:21.877Z,49.22
2023-02-11T10:55:29.190Z,54.63
2023-02-11T11:00:41.432Z,61.72
2023-02-11T11:05:49.982Z,58.78
2023-02-11T11:11:05.176Z,59.33
2023-02-11T11:16:26.832Z,61.77
2023-02-11T11:21:35.775Z,61.47
2023-02-11T11:26:44.972Z,58.33
2023-02-11T11:31:53.403Z,61.88
2023-02-11T11:36:59.688Z,62.53
2023-02-11T11:42:06.621Z,61.03
2023-02-11T11:47:22.528Z,66.38
2023-02-11T11:52:38.942Z,66.28
2023-02-11T11:57:45.506Z,56.70
2023-02-11T12:03:12.224Z,63.13
2023-02-11T12:08:25.907Z,56.50
2023-02-11T12:13:42.251Z,59.22
2023-02-11T12:19:18.110Z,54.65
2023-02-11T12:24:42.779Z,52.67
2023-02-11T12:30:03.801Z,56.20
2023-02-11T12:35:28.885Z,55.58
2023-02-11T12:40:43.532Z,55.13
2023-02-11T12:45:59.256Z,57.00
2023-02-11T12:51:11.778Z,51.78
2023-02-11T12:56:21.509Z,55.22
2023-02-11T13:01:30.625Z,55.90
2023-02-11T13:06:42.049Z,53.40
2023-02-11T13:11:52.187Z,53.28
2023-02-11T13:16:58.672Z,57.75
2023-02-11T13:22:10.782Z,60.60
2023-02-11T13:27:24.439Z,56.67
2023-02-11T13:32:28.825Z,65.55
2023-02-11T13:37:40.093Z,56.22
2023-02-11T13:42:52.355Z,56.67
2023-02-11T13:47:59.518Z,59.40
2023-02-11T13:53:07.898Z,57.88
2023-02-11T13:58:36.496Z,58.60
2023-02-11T14:04:18.463Z,57.05
2023-02-11T14:09:40.085Z,67.60
2023-02-11T14:15:18.344Z,66.40
2023-02-11T14:20:42.075Z,64.47
2023-02-11T14:25:58.392Z,65.05
2023-02-11T14:31:10.905Z,63.75
2023-02-11T14:36:51.977Z,64.90
2023-02-11T14:41:58.374Z,62.22
2023-02-11T14:47:02.962Z,66.50
2023-02-11T14:52:17.113Z,70.28
2023-02-11T14:57:23.132Z,69.15
2023-02-11T15:02:32.165Z,73.75
2023-02-11T15:07:36.710Z,72.47
2023-02-11T15:12:42.726Z,82.28
2023-02-11T15:17:47.641Z,81.63
2023-02-11T15:22:58.654Z,74.53
2023-02-11T15:28:21.618Z,72.32
2023-02-11T15:33:30.067Z,82.50
2023-02-11T15:38:34.637Z,73.18
2023-02-11T15:43:45.648Z,92.97
2023-02-11T15:48:52.665Z,93.18
2023-02-11T15:53:59.358Z,128.52
2023-02-11T15:59:14.032Z,84.70
2023-02-11T16:04:20.711Z,81.72
2023-02-11T16:09:31.835Z,74.35
2023-02-11T16:14:39.388Z,80.10
2023-02-11T16:19:46.871Z,80.00
2023-02-11T16:24:54.393Z,81.13
2023-02-11T16:30:00.493Z,78.82
2023-02-11T16:35:12.433Z,84.70
2023-02-11T16:40:17.125Z,84.97
2023-02-11T16:45:23.085Z,80.82
2023-02-11T16:55:32.604Z,89.60
2023-02-11T17:00:39.082Z,88.22
2023-02-11T17:05:55.033Z,86.03
2023-02-11T17:11:00.214Z,95.45
2023-02-11T17:16:07.525Z,82.07
2023-02-11T17:21:11.829Z,85.53
2023-02-11T17:26:16.243Z,84.28
2023-02-11T17:31:22.160Z,83.18
2023-02-11T17:36:26.586Z,81.85
2023-02-11T17:41:31.152Z,79.05
2023-02-11T17:46:37.589Z,80.43
2023-02-11T17:51:42.140Z,74.78
2023-02-11T17:56:51.004Z,80.28
2023-02-11T18:01:57.415Z,76.95
2023-02-11T18:07:01.876Z,71.95
2023-02-11T18:12:07.110Z,79.97
2023-02-11T18:17:13.177Z,78.03
2023-02-11T18:22:18.698Z,71.10
2023-02-11T18:27:23.609Z,79.57
2023-02-11T18:32:29.856Z,77.43
2023-02-11T18:37:34.758Z,78.75
2023-02-11T18:42:39.434Z,81.37
2023-02-11T18:47:45.336Z,77.25
2023-02-11T18:52:49.876Z,82.00
2023-02-11T18:57:55.241Z,78.43
2023-02-11T19:03:01.513Z,72.88
2023-02-11T19:08:07.346Z,70.47
2023-02-11T19:13:13.558Z,72.55
2023-02-11T19:18:19.642Z,71.35
2023-02-11T19:23:24.153Z,73.55
2023-02-11T19:28:28.635Z,69.93
2023-02-11T19:33:34.622Z,71.18
2023-02-11T19:38:39.900Z,70.05
2023-02-11T19:43:44.544Z,71.07
2023-02-11T19:48:51.168Z,73.05
2023-02-11T19:53:55.724Z,64.53
2023-02-11T19:59:02.780Z,77.15
2023-02-11T20:04:09.151Z,49.38
2023-02-11T20:09:15.259Z,49.38
2023-02-11T20:14:19.718Z,45.35
2023-02-11T20:19:25.759Z,51.78
2023-02-11T20:24:30.395Z,48.55
2023-02-11T20:29:34.808Z,47.88
2023-02-11T20:34:40.857Z,50.70
2023-02-11T20:39:46.144Z,45.97
2023-02-11T20:44:50.680Z,49.42
2023-02-11T20:49:57.331Z,45.55
2023-02-11T20:55:01.820Z,48.55
2023-02-11T21:00:07.283Z,44.10
2023-02-11T21:05:13.818Z,42.47
2023-02-11T21:10:18.681Z,41.05
2023-02-11T21:15:24.449Z,44.63
2023-02-11T21:25:34.690Z,65.13
2023-02-11T21:30:39.483Z,56.03
2023-02-11T21:35:45.490Z,47.92
2023-02-11T21:40:50.291Z,46.47
2023-02-11T21:45:55.039Z,48.15
2023-02-11T21:51:05.117Z,46.10
2023-02-11T21:56:11.756Z,49.05
2023-02-11T22:01:18.226Z,47.45
2023-02-11T22:06:26.642Z,42.65
2023-02-11T22:11:31.410Z,46.67
2023-02-11T22:16:36.546Z,44.70
2023-02-11T22:21:43.606Z,43.00
2023-02-11T22:26:48.119Z,51.65
2023-02-11T22:31:52.591Z,38.60
2023-02-11T22:36:58.632Z,47.55
2023-02-11T22:42:03.137Z,47.45
2023-02-11T22:47:07.896Z,51.10
2023-02-11T22:52:14.079Z,40.23
2023-02-11T22:57:18.663Z,41.85
2023-02-11T23:02:23.296Z,40.22
2023-02-11T23:07:29.339Z,37.90
2023-02-11T23:12:33.814Z,45.30
2023-02-11T23:17:38.374Z,41.88
2023-02-11T23:22:44.218Z,43.72
2023-02-11T23:32:53.548Z,41.30
2023-02-11T23:37:59.280Z,38.42
2023-02-11T23:43:03.652Z,40.65
2023-02-11T23:48:08.058Z,39.72
2023-02-11T23:53:13.831Z,38.22
